Time;durP1;ratioP1;P1;durP2;ratioP2;P2;SDS_P1;SDS_P2;PMS_P1;PMS_P2;Temp;Humidity;BMP_temperature;BMP_pressure;BME280_temperature;BME280_humidity;BME280_pressure;Samples;Min_cycle;Max_cycle;Signal;HPM_P1;HPM_P2
2023/07/30 00:02:17;;;;;;;4.17;2.60;;;;;;;18.65;100.00;96050.41;4976015;28;102654;-60
2023/07/30 00:04:44;;;;;;;5.20;3.67;;;;;;;18.65;100.00;96046.94;4952280;28;102693;-60
2023/07/30 00:07:11;;;;;;;5.80;2.57;;;;;;;18.62;100.00;96045.66;4952889;28;101983;-60
2023/07/30 00:09:39;;;;;;;3.70;2.40;;;;;;;18.62;100.00;96051.06;4969308;28;105825;-60
2023/07/30 00:12:09;;;;;;;4.23;2.60;;;;;;;18.61;100.00;96048.66;4989682;28;102742;-60
2023/07/30 00:14:36;;;;;;;2.50;2.30;;;;;;;18.58;100.00;96046.59;4993431;28;102039;-60
2023/07/30 00:17:04;;;;;;;2.40;2.20;;;;;;;18.58;100.00;96062.75;4989961;28;103112;-60
2023/07/30 00:19:30;;;;;;;2.33;2.17;;;;;;;18.51;100.00;96070.47;4993276;28;102129;-60
2023/07/30 00:21:57;;;;;;;3.30;3.00;;;;;;;18.45;100.00;96091.34;4983323;28;103440;-60
2023/07/30 00:24:24;;;;;;;3.57;2.33;;;;;;;18.37;100.00;96104.75;4972886;28;102892;-60
2023/07/30 00:26:51;;;;;;;2.77;2.47;;;;;;;18.29;100.00;96108.94;4973782;28;101931;-59
2023/07/30 00:29:20;;;;;;;2.83;2.20;;;;;;;18.27;100.00;96110.34;4972373;28;105220;-59
2023/07/30 00:31:47;;;;;;;2.50;2.13;;;;;;;18.22;100.00;96108.56;4972844;28;101908;-60
2023/07/30 00:34:13;;;;;;;5.30;2.73;;;;;;;18.18;100.00;96110.28;4973545;28;101856;-60
2023/07/30 00:36:40;;;;;;;2.63;2.43;;;;;;;18.14;100.00;96114.66;4958783;28;105272;-60
2023/07/30 00:39:10;;;;;;;2.80;2.47;;;;;;;18.07;100.00;96121.56;4973283;28;101764;-60
2023/07/30 00:41:37;;;;;;;2.60;2.40;;;;;;;17.98;100.00;96131.47;4955738;28;105040;-60
2023/07/30 00:44:06;;;;;;;2.87;2.50;;;;;;;17.94;100.00;96146.63;4955011;28;105463;-60
2023/07/30 00:46:36;;;;;;;2.70;2.50;;;;;;;17.94;100.00;96152.00;4955723;28;101761;-60
2023/07/30 00:49:04;;;;;;;2.90;2.70;;;;;;;17.83;100.00;96153.31;4964265;28;105943;-60
2023/07/30 00:51:34;;;;;;;3.00;2.47;;;;;;;17.76;100.00;96158.31;4971062;28;104959;-60
2023/07/30 00:54:01;;;;;;;2.60;2.40;;;;;;;17.71;100.00;96151.13;4970834;28;102228;-60
2023/07/30 00:56:28;;;;;;;2.07;1.97;;;;;;;17.74;100.00;96152.41;4970107;28;102571;-60
2023/07/30 00:58:56;;;;;;;4.90;2.17;;;;;;;17.76;100.00;96136.78;4974299;28;105331;-61
2023/07/30 01:01:23;;;;;;;3.67;2.30;;;;;;;17.70;100.00;96146.03;4955443;28;106899;-60
2023/07/30 01:03:52;;;;;;;2.43;2.07;;;;;;;17.68;100.00;96140.19;4971864;28;102796;-60
2023/07/30 01:06:19;;;;;;;2.93;2.00;;;;;;;17.63;100.00;96137.59;4957712;28;101891;-60
2023/07/30 01:08:47;;;;;;;2.60;1.70;;;;;;;17.63;100.00;96133.03;4968479;28;105272;-60
2023/07/30 01:11:15;;;;;;;1.97;1.87;;;;;;;17.70;100.00;96127.22;4968021;28;104338;-60
2023/07/30 01:13:43;;;;;;;2.73;1.70;;;;;;;17.69;100.00;96115.69;4953218;28;102003;-60
2023/07/30 01:16:11;;;;;;;3.03;2.10;;;;;;;17.60;100.00;96109.41;4968178;28;105355;-60
2023/07/30 01:18:38;;;;;;;2.80;2.17;;;;;;;17.58;100.00;96091.97;4968929;28;105787;-60
2023/07/30 01:21:06;;;;;;;3.50;2.20;;;;;;;17.59;100.00;96083.63;4974624;28;102281;-60
2023/07/30 01:23:33;;;;;;;3.57;1.87;;;;;;;17.52;100.00;96106.63;4971923;28;103028;-60
2023/07/30 01:26:03;;;;;;;2.07;1.87;;;;;;;17.52;100.00;96099.38;4971226;28;101882;-60
2023/07/30 01:28:37;;;;;;;2.37;2.03;;;;;;;17.58;100.00;96102.72;4971136;28;105534;-61
2023/07/30 01:31:07;;;;;;;2.37;2.13;;;;;;;17.58;100.00;96103.53;4972143;28;102610;-60
2023/07/30 01:33:34;;;;;;;2.27;1.90;;;;;;;17.60;100.00;96095.19;4971259;28;102051;-60
2023/07/30 01:36:03;;;;;;;1.90;1.80;;;;;;;17.64;100.00;96096.97;4957219;28;103515;-60
2023/07/30 01:38:32;;;;;;;2.13;2.03;;;;;;;17.64;100.00;96094.28;4966664;28;103082;-60
2023/07/30 01:40:59;;;;;;;2.10;2.00;;;;;;;17.70;100.00;96094.94;4973292;28;102123;-60
2023/07/30 01:43:26;;;;;;;2.37;2.00;;;;;;;17.70;100.00;96094.94;4951176;28;105633;-60
2023/07/30 01:45:53;;;;;;;2.20;2.10;;;;;;;17.72;100.00;96090.84;4951473;28;102042;-60
2023/07/30 01:48:20;;;;;;;2.23;1.90;;;;;;;17.74;100.00;96093.25;4951476;28;103743;-60
2023/07/30 01:50:48;;;;;;;2.13;1.93;;;;;;;17.76;100.00;96091.84;4961754;28;102525;-60
2023/07/30 01:53:15;;;;;;;2.50;1.80;;;;;;;17.73;100.00;96100.53;4954701;28;101931;-60
2023/07/30 01:55:46;;;;;;;2.60;2.40;;;;;;;17.69;100.00;96106.81;4954524;28;105310;-60
2023/07/30 01:58:13;;;;;;;2.10;1.90;;;;;;;17.72;100.00;96114.28;4968781;28;105224;-61
2023/07/30 02:00:40;;;;;;;2.70;2.27;;;;;;;17.61;100.00;96112.91;4973751;28;102058;-61
2023/07/30 02:03:07;;;;;;;2.50;2.30;;;;;;;17.50;100.00;96108.84;4994981;28;101698;-61
2023/07/30 02:05:34;;;;;;;2.00;1.90;;;;;;;17.55;100.00;96096.06;4973894;28;101907;-61
2023/07/30 02:08:01;;;;;;;2.53;2.23;;;;;;;17.60;100.00;96104.03;4973992;28;105321;-60
2023/07/30 02:10:28;;;;;;;2.33;2.10;;;;;;;17.52;100.00;96096.69;4972641;28;102776;-61
2023/07/30 02:12:57;;;;;;;3.10;1.93;;;;;;;17.55;100.00;96093.38;4973845;28;101875;-61
2023/07/30 02:15:24;;;;;;;3.30;2.13;;;;;;;17.50;100.00;96092.69;4973840;28;105356;-61
2023/07/30 02:17:50;;;;;;;2.17;2.00;;;;;;;17.51;100.00;96102.34;4990863;28;102554;-61
2023/07/30 02:20:17;;;;;;;3.27;2.07;;;;;;;17.54;100.00;96104.47;4991712;28;101841;-60
2023/07/30 02:22:44;;;;;;;3.53;2.40;;;;;;;17.48;100.00;96105.63;4955550;28;103637;-61
2023/07/30 02:25:11;;;;;;;4.17;2.90;;;;;;;17.50;100.00;96095.41;4956934;28;105044;-61
2023/07/30 02:27:38;;;;;;;3.03;2.30;;;;;;;17.54;100.00;96102.53;4970537;28;105728;-61
2023/07/30 02:30:08;;;;;;;4.03;2.20;;;;;;;17.57;100.00;96098.47;4953680;28;105525;-61
2023/07/30 02:32:35;;;;;;;2.77;2.57;;;;;;;17.62;100.00;96092.97;4970013;28;101964;-61
2023/07/30 02:35:02;;;;;;;2.60;2.40;;;;;;;17.61;100.00;96102.16;4971541;28;101703;-60
2023/07/30 02:37:28;;;;;;;2.83;2.53;;;;;;;17.62;100.00;96096.47;4971164;28;102978;-60
2023/07/30 02:39:55;;;;;;;2.97;2.77;;;;;;;17.62;100.00;96098.34;4953156;28;101914;-60
2023/07/30 02:42:22;;;;;;;2.60;2.40;;;;;;;17.60;100.00;96095.19;4965415;28;105373;-60
2023/07/30 02:44:49;;;;;;;6.80;2.70;;;;;;;17.66;100.00;96096.66;4972576;28;106048;-60
2023/07/30 02:47:17;;;;;;;2.93;2.70;;;;;;;17.64;100.00;96101.53;4976566;28;101863;-60
2023/07/30 02:49:44;;;;;;;2.70;2.50;;;;;;;17.59;100.00;96098.94;4972605;28;105655;-60
2023/07/30 02:52:10;;;;;;;3.10;2.77;;;;;;;17.59;100.00;96098.94;4969809;28;101947;-60
2023/07/30 02:54:38;;;;;;;3.77;2.70;;;;;;;17.62;100.00;96101.03;4954917;28;105341;-60
2023/07/30 02:57:05;;;;;;;2.87;2.57;;;;;;;17.62;100.00;96092.97;4972620;28;105955;-60
2023/07/30 02:59:35;;;;;;;2.67;2.47;;;;;;;17.64;100.00;96082.72;4973226;28;101982;-60
2023/07/30 03:02:04;;;;;;;2.53;2.30;;;;;;;17.70;100.00;96073.44;4969727;28;105416;-61
2023/07/30 03:04:32;;;;;;;2.70;2.50;;;;;;;17.75;100.00;96078.69;4960558;28;105425;-60
2023/07/30 03:06:59;;;;;;;2.63;2.20;;;;;;;17.68;100.00;96078.31;4962560;28;102333;-61
2023/07/30 03:09:26;;;;;;;2.37;2.27;;;;;;;17.62;100.00;96083.03;4975606;28;105155;-61
2023/07/30 03:11:53;;;;;;;2.40;2.20;;;;;;;17.63;100.00;96083.81;4973130;28;102022;-60
2023/07/30 03:14:21;;;;;;;2.50;2.30;;;;;;;17.66;100.00;96084.00;4972751;28;105095;-60
2023/07/30 03:16:48;;;;;;;2.13;2.03;;;;;;;17.63;100.00;96086.50;4988852;28;105644;-61
2023/07/30 03:19:14;;;;;;;4.33;2.07;;;;;;;17.64;100.00;96074.63;4990765;28;102218;-61
2023/07/30 03:21:43;;;;;;;2.20;2.10;;;;;;;17.64;100.00;96075.44;4972740;28;105708;-61
2023/07/30 03:24:10;;;;;;;2.40;2.20;;;;;;;17.58;100.00;96067.78;4971606;28;105885;-61
2023/07/30 03:26:37;;;;;;;3.40;2.17;;;;;;;17.63;100.00;96065.00;4990704;28;101829;-60
2023/07/30 03:29:04;;;;;;;2.30;2.10;;;;;;;17.71;100.00;96053.53;4972931;28;105643;-60
2023/07/30 03:31:31;;;;;;;2.00;1.90;;;;;;;17.76;100.00;96061.50;4975154;28;101954;-60
2023/07/30 03:33:58;;;;;;;4.73;2.00;;;;;;;17.76;100.00;96056.09;4972513;28;105578;-60
2023/07/30 03:36:25;;;;;;;2.87;1.80;;;;;;;17.79;100.00;96055.47;4971854;28;105899;-60
2023/07/30 03:38:54;;;;;;;2.27;2.00;;;;;;;17.74;100.00;96064.47;4972459;28;101928;-60
2023/07/30 03:41:21;;;;;;;2.30;2.10;;;;;;;17.73;100.00;96064.78;4972443;28;105292;-60
2023/07/30 03:43:49;;;;;;;1.97;1.87;;;;;;;17.66;100.00;96072.47;4963109;28;105834;-60
2023/07/30 03:46:15;;;;;;;2.30;2.10;;;;;;;17.63;100.00;96078.44;4969884;28;101942;-60
2023/07/30 03:48:42;;;;;;;2.77;2.40;;;;;;;17.64;100.00;96074.63;4972675;28;105968;-60
2023/07/30 03:51:10;;;;;;;2.37;2.23;;;;;;;17.63;100.00;96091.88;4994030;28;102729;-60
2023/07/30 03:53:37;;;;;;;2.80;2.60;;;;;;;17.61;100.00;96086.78;4975264;28;104155;-60
2023/07/30 03:56:05;;;;;;;2.57;2.20;;;;;;;17.61;100.00;96096.78;4975195;28;105908;-60
2023/07/30 03:58:32;;;;;;;2.57;2.30;;;;;;;17.63;100.00;96092.69;4993408;28;102096;-60
2023/07/30 04:00:59;;;;;;;2.27;1.97;;;;;;;17.55;100.00;96098.75;4957132;28;105362;-61
2023/07/30 04:03:26;;;;;;;3.20;2.40;;;;;;;17.57;100.00;96107.34;4955819;28;105422;-61
2023/07/30 04:05:56;;;;;;;2.50;2.30;;;;;;;17.55;100.00;96103.34;4975514;28;101983;-60
2023/07/30 04:08:23;;;;;;;3.27;2.70;;;;;;;17.49;100.00;96118.00;4990173;28;103255;-61
2023/07/30 04:10:50;;;;;;;2.90;2.70;;;;;;;17.50;100.00;96122.28;4957777;28;104390;-60
2023/07/30 04:13:18;;;;;;;2.87;2.67;;;;;;;17.52;100.00;96123.56;4996723;28;101830;-61
2023/07/30 04:15:45;;;;;;;5.90;2.57;;;;;;;17.45;100.00;96130.44;4974085;28;103338;-61
2023/07/30 04:18:12;;;;;;;2.63;2.40;;;;;;;17.41;100.00;96135.63;4973948;28;101905;-61
2023/07/30 04:20:39;;;;;;;2.40;2.30;;;;;;;17.47;100.00;96142.50;4956000;28;105895;-61
2023/07/30 04:23:06;;;;;;;2.90;2.70;;;;;;;17.50;100.00;96139.19;4956401;28;105669;-61
2023/07/30 04:25:32;;;;;;;2.80;2.47;;;;;;;17.47;100.00;96145.19;4992096;28;101958;-62
2023/07/30 04:27:59;;;;;;;3.40;2.60;;;;;;;17.53;100.00;96152.03;4975612;28;105266;-62
2023/07/30 04:30:28;;;;;;;3.03;2.80;;;;;;;17.55;100.00;96146.38;4974770;28;105776;-62
2023/07/30 04:32:55;;;;;;;2.90;2.37;;;;;;;17.60;100.00;96155.13;4975424;28;102051;-62
2023/07/30 04:35:22;;;;;;;2.47;2.33;;;;;;;17.60;100.00;96154.34;4972338;28;105278;-61
2023/07/30 04:37:49;;;;;;;2.70;2.50;;;;;;;17.62;100.00;96157.50;4955869;28;101943;-62
2023/07/30 04:40:17;;;;;;;3.00;2.70;;;;;;;17.64;100.00;96160.69;4955698;28;104663;-61
2023/07/30 04:42:43;;;;;;;2.63;2.43;;;;;;;17.68;100.00;96167.06;4955033;28;105501;-61
2023/07/30 04:45:10;;;;;;;2.60;2.40;;;;;;;17.66;100.00;96163.91;4955449;28;102011;-61
2023/07/30 04:47:42;;;;;;;5.40;2.90;;;;;;;17.73;100.00;96169.66;4961915;28;103695;-61
2023/07/30 04:50:10;;;;;;;3.07;2.53;;;;;;;17.77;100.00;96173.34;4974200;28;105442;-62
2023/07/30 04:52:38;;;;;;;2.73;2.53;;;;;;;17.82;100.00;96181.31;4975041;28;102198;-62
2023/07/30 04:55:06;;;;;;;2.23;2.13;;;;;;;17.85;100.00;96176.13;4991630;28;103406;-61
2023/07/30 04:57:33;;;;;;;2.30;2.07;;;;;;;17.91;100.00;96177.63;4977936;28;105146;-60
2023/07/30 04:59:59;;;;;;;3.53;2.53;;;;;;;17.99;100.00;96173.41;4963985;28;105010;-59
2023/07/30 05:02:27;;;;;;;2.30;2.20;;;;;;;18.07;100.00;96180.75;4954122;28;105560;-60
2023/07/30 05:04:55;;;;;;;2.73;2.53;;;;;;;18.08;100.00;96182.34;4972432;28;101948;-60
2023/07/30 05:07:22;;;;;;;2.63;2.30;;;;;;;18.12;100.00;96177.97;4963471;28;105369;-60
2023/07/30 05:09:49;;;;;;;2.43;2.30;;;;;;;18.12;100.00;96184.16;4972342;28;102759;-60
2023/07/30 05:12:16;;;;;;;2.10;1.90;;;;;;;18.13;100.00;96179.56;4972936;28;101929;-60
2023/07/30 05:14:43;;;;;;;2.10;2.00;;;;;;;18.18;100.00;96174.88;4973898;28;102548;-61
2023/07/30 05:17:10;;;;;;;2.47;2.10;;;;;;;18.19;100.00;96172.97;4963206;28;103767;-61
2023/07/30 05:19:37;;;;;;;2.13;1.70;;;;;;;18.32;100.00;96175.63;4978247;28;101854;-61
2023/07/30 05:22:07;;;;;;;1.90;1.80;;;;;;;18.48;100.00;96168.81;4974046;28;105607;-60
2023/07/30 05:24:36;;;;;;;2.10;2.00;;;;;;;18.58;100.00;96170.50;4972707;28;101899;-61
2023/07/30 05:27:03;;;;;;;2.13;1.90;;;;;;;18.70;100.00;96182.28;4992479;28;102353;-61
2023/07/30 05:29:30;;;;;;;2.40;1.70;;;;;;;18.72;100.00;96177.41;4983119;28;101760;-59
2023/07/30 05:31:57;;;;;;;2.53;2.23;;;;;;;18.82;100.00;96179.84;4955041;28;101858;-61
2023/07/30 05:34:23;;;;;;;1.80;1.70;;;;;;;18.85;100.00;96175.75;4972567;28;102388;-60
2023/07/30 05:36:50;;;;;;;2.27;1.83;;;;;;;18.85;100.00;96178.44;4973038;28;101933;-69
2023/07/30 05:39:19;;;;;;;5.53;1.70;;;;;;;18.76;100.00;96174.88;4975738;28;101865;-71
2023/07/30 05:41:47;;;;;;;2.00;1.87;;;;;;;18.86;100.00;96185.41;4954042;28;105599;-69
2023/07/30 05:44:14;;;;;;;2.80;1.80;;;;;;;18.91;100.00;96177.22;4954697;28;102053;-70
2023/07/30 05:46:41;;;;;;;2.10;1.90;;;;;;;19.09;100.00;96177.00;4968729;28;105697;-76
2023/07/30 05:49:08;;;;;;;1.60;1.50;;;;;;;19.16;100.00;96176.56;4973625;28;105400;-76
2023/07/30 05:51:35;;;;;;;2.00;1.80;;;;;;;19.35;100.00;96166.38;4973803;28;101979;-73
2023/07/30 05:54:02;;;;;;;1.60;1.50;;;;;;;19.34;100.00;96172.88;4973986;28;103830;-69
2023/07/30 05:56:31;;;;;;;2.17;1.80;;;;;;;19.48;100.00;96176.25;4973414;28;105621;-69
2023/07/30 05:58:58;;;;;;;1.80;1.70;;;;;;;19.62;100.00;96179.66;4973949;28;101780;-69
2023/07/30 06:01:25;;;;;;;1.40;1.40;;;;;;;19.61;100.00;96172.69;4976818;28;105096;-68
2023/07/30 06:03:52;;;;;;;1.60;1.50;;;;;;;19.66;100.00;96170.63;4973809;28;101904;-70
2023/07/30 06:06:26;;;;;;;1.47;1.37;;;;;;;19.70;100.00;96170.78;4973463;28;105900;-70
2023/07/30 06:08:54;;;;;;;1.80;1.70;;;;;;;19.77;100.00;96174.63;4973222;28;104250;-68
2023/07/30 06:11:21;;;;;;;1.67;1.57;;;;;;;19.93;100.00;96177.69;4973862;28;102421;-69
2023/07/30 06:13:50;;;;;;;2.20;1.70;;;;;;;20.09;100.00;96181.56;4973518;28;105476;-69
2023/07/30 06:16:20;;;;;;;1.90;1.67;;;;;;;20.13;100.00;96175.22;4968874;28;105113;-69
2023/07/30 06:18:47;;;;;;;2.20;1.37;;;;;;;20.25;100.00;96177.28;4954163;28;101906;-69
2023/07/30 06:21:52;;;;;;;1.50;1.40;;;;;;;20.43;100.00;96174.28;4953987;28;105483;-70
2023/07/30 06:24:19;;;;;;;1.30;1.30;;;;;;;20.43;100.00;96178.91;4974406;28;103215;-70
2023/07/30 06:26:46;;;;;;;1.80;1.70;;;;;;;20.44;100.00;96185.91;4969959;28;105449;-70
2023/07/30 06:29:15;;;;;;;1.30;1.20;;;;;;;20.54;100.00;96186.38;4953234;28;105676;-70
2023/07/30 06:31:43;;;;;;;3.80;1.50;;;;;;;20.64;100.00;96187.94;4970090;28;102362;-70
2023/07/30 06:34:10;;;;;;;1.87;1.67;;;;;;;20.68;100.00;96187.00;4970247;28;105480;-70
2023/07/30 06:36:37;;;;;;;1.70;1.60;;;;;;;20.65;100.00;96187.63;4963992;28;105519;-70
2023/07/30 06:39:04;;;;;;;1.50;1.40;;;;;;;20.72;100.00;96184.47;4973273;28;101912;-70
2023/07/30 06:41:31;;;;;;;1.83;1.60;;;;;;;20.75;100.00;96176.50;4973164;28;106046;-70
2023/07/30 06:44:00;;;;;;;1.60;1.50;;;;;;;20.90;100.00;96170.66;4972654;28;105525;-70
2023/07/30 06:46:28;;;;;;;2.50;1.60;;;;;;;20.91;100.00;96177.63;4993194;28;101887;-70
2023/07/30 06:48:55;;;;;;;1.40;1.30;;;;;;;21.02;100.00;96172.69;4972817;28;105650;-70
2023/07/30 06:51:25;;;;;;;2.17;1.80;;;;;;;21.21;100.00;96173.13;4978497;28;102173;-68
2023/07/30 06:53:53;;;;;;;1.40;1.30;;;;;;;21.38;100.00;96157.66;4954942;28;106142;-69
2023/07/30 06:56:20;;;;;;;1.57;1.47;;;;;;;21.41;100.00;96161.63;4962898;28;106046;-66
2023/07/30 06:58:47;;;;;;;1.97;1.57;;;;;;;21.41;100.00;96162.38;4972800;28;101948;-66
2023/07/30 07:01:14;;;;;;;1.73;1.60;;;;;;;21.59;100.00;96166.59;4989538;28;105701;-66
2023/07/30 07:03:43;;;;;;;1.93;1.50;;;;;;;21.59;100.00;96157.72;4972411;28;105741;-66
2023/07/30 07:06:10;;;;;;;1.33;1.33;;;;;;;21.62;100.00;96157.84;4972756;28;103763;-66
2023/07/30 07:08:37;;;;;;;1.90;1.47;;;;;;;21.61;100.00;96160.88;4975580;28;105652;-66
2023/07/30 07:11:04;;;;;;;1.40;1.30;;;;;;;21.66;100.00;96166.13;4989440;28;101915;-66
2023/07/30 07:13:31;;;;;;;2.20;1.43;;;;;;;21.55;100.00;96171.09;4990782;28;102358;-66
2023/07/30 07:15:59;;;;;;;1.37;1.30;;;;;;;21.68;100.00;96158.50;4990018;28;102535;-66
2023/07/30 07:18:26;;;;;;;1.30;1.30;;;;;;;21.90;100.00;96163.66;4972917;28;101996;-66
2023/07/30 07:20:55;;;;;;;1.60;1.50;;;;;;;21.92;100.00;96156.78;4972597;28;105488;-66
2023/07/30 07:23:22;;;;;;;1.47;1.37;;;;;;;21.95;100.00;96156.13;4972067;28;104565;-66
2023/07/30 07:25:49;;;;;;;1.20;1.20;;;;;;;22.00;100.00;96160.53;4972190;28;101964;-66
2023/07/30 07:28:18;;;;;;;1.17;1.10;;;;;;;22.27;100.00;96158.13;4972788;28;105376;-66
2023/07/30 07:30:46;;;;;;;1.40;1.30;;;;;;;;;;4975341;28;105286;-66
2023/07/30 07:33:13;;;;;;;1.20;1.20;;;;;;;22.68;100.00;96151.94;4972728;28;105580;-66
2023/07/30 07:35:41;;;;;;;1.30;1.20;;;;;;;22.70;100.00;96160.53;4952263;28;105543;-66
2023/07/30 07:38:09;;;;;;;1.30;1.20;;;;;;;22.50;100.00;96155.94;4952755;28;102058;-66
2023/07/30 07:40:39;;;;;;;1.20;1.20;;;;;;;22.59;100.00;96160.16;4969150;28;104518;-66
2023/07/30 07:43:06;;;;;;;1.97;1.30;;;;;;;22.67;100.00;96158.50;4957445;28;106011;-66
2023/07/30 07:45:34;;;;;;;1.17;1.17;;;;;;;22.68;100.00;96162.78;4972246;28;101909;-66
2023/07/30 07:48:01;;;;;;;1.33;1.27;;;;;;;22.46;100.00;96173.97;4990464;28;102577;-66
2023/07/30 07:50:28;;;;;;;1.40;1.27;;;;;;;22.30;100.00;96170.22;4991173;28;105576;-66
2023/07/30 07:52:55;;;;;;;1.23;1.10;;;;;;;22.49;100.00;96160.56;4968390;28;105277;-66
2023/07/30 07:55:24;;;;;;;1.20;1.10;;;;;;;22.43;100.00;96169.97;4987873;28;103128;-66
2023/07/30 07:57:51;;;;;;;1.27;1.23;;;;;;;22.38;100.00;96172.88;4972283;28;102053;-66
2023/07/30 08:00:19;;;;;;;1.53;1.30;;;;;;;22.57;100.00;96169.75;4972081;28;105473;-66
2023/07/30 08:02:46;;;;;;;1.10;1.10;;;;;;;22.47;100.00;96172.84;4989500;28;103332;-66
2023/07/30 08:05:15;;;;;;;1.30;1.20;;;;;;;22.64;100.00;96161.88;4956551;28;103509;-66
2023/07/30 08:07:42;;;;;;;1.40;1.30;;;;;;;23.03;100.00;96164.06;4969484;28;105594;-66
2023/07/30 08:10:10;;;;;;;2.13;1.20;;;;;;;22.78;100.00;96162.41;4988109;28;105668;-66
2023/07/30 08:12:39;;;;;;;1.50;1.40;;;;;;;22.66;100.00;96165.06;4975507;28;101979;-66
2023/07/30 08:15:07;;;;;;;1.77;1.30;;;;;;;22.57;100.00;96173.22;4986120;28;105651;-65
2023/07/30 08:17:34;;;;;;;1.47;1.27;;;;;;;22.94;100.00;96158.72;4988265;28;102313;-66
2023/07/30 08:20:02;;;;;;;1.60;1.10;;;;;;;22.83;100.00;96164.91;4990067;28;102950;-66
2023/07/30 08:22:29;;;;;;;1.30;1.30;;;;;;;23.29;100.00;96157.28;4987891;28;106147;-66
2023/07/30 08:24:56;;;;;;;1.53;1.23;;;;;;;23.64;100.00;96153.00;4977992;28;101890;-66
2023/07/30 08:27:24;;;;;;;1.30;1.20;;;;;;;23.57;100.00;96158.22;4971606;28;105608;-66
2023/07/30 08:29:52;;;;;;;1.20;1.10;;;;;;;23.64;100.00;96154.94;4971410;28;105417;-66
2023/07/30 08:32:19;;;;;;;2.23;1.20;;;;;;;23.87;100.00;96156.09;4966738;28;102171;-66
2023/07/30 08:34:46;;;;;;;2.03;1.20;;;;;;;23.86;100.00;96157.22;4974859;28;105708;-66
2023/07/30 08:37:14;;;;;;;0.97;0.97;;;;;;;23.59;100.00;96155.94;4972187;28;102039;-66
2023/07/30 08:39:41;;;;;;;1.03;1.00;;;;;;;23.62;100.00;96157.19;4974982;28;105528;-66
2023/07/30 08:42:08;;;;;;;1.27;1.20;;;;;;;23.64;100.00;96152.25;4966678;28;105228;-66
2023/07/30 08:44:36;;;;;;;1.33;1.23;;;;;;;23.55;100.00;96154.25;4955274;28;101932;-66
2023/07/30 08:47:05;;;;;;;1.13;1.10;;;;;;;23.60;100.00;96141.25;4955456;28;105655;-66
2023/07/30 08:49:33;;;;;;;1.10;1.10;;;;;;;23.88;100.00;96144.09;4954970;28;105476;-66
2023/07/30 08:52:03;;;;;;;1.30;1.20;;;;;;;23.71;100.00;96142.38;4956062;28;101992;-66
2023/07/30 08:54:32;;;;;;;1.20;1.10;;;;;;;23.85;100.00;96125.72;4992958;28;102688;-66
2023/07/30 08:57:00;;;;;;;1.20;1.10;;;;;;;23.86;100.00;96135.50;4977846;28;104499;-66
2023/07/30 08:59:32;;;;;;;1.53;1.40;;;;;;;24.35;100.00;96137.81;4974910;28;105168;-66
2023/07/30 09:02:01;;;;;;;1.40;1.30;;;;;;;24.54;100.00;96131.75;4990538;28;102267;-66
2023/07/30 09:04:35;;;;;;;1.20;1.20;;;;;;;24.58;100.00;96128.03;4975011;28;102126;-66
2023/07/30 09:07:02;;;;;;;1.00;1.00;;;;;;;24.49;100.00;96127.38;4992703;28;102642;-66
2023/07/30 09:09:30;;;;;;;1.10;1.10;;;;;;;24.46;100.00;96119.09;4974251;28;104214;-66
2023/07/30 09:11:57;;;;;;;2.60;1.40;;;;;;;24.56;100.00;96134.91;4974363;28;101891;-66
2023/07/30 09:14:24;;;;;;;1.20;1.13;;;;;;;24.62;100.00;96117.28;4974810;28;105438;-66
2023/07/30 09:16:58;;;;;;;1.07;1.00;;;;;;;24.45;100.00;96123.75;4974318;28;105750;-66
2023/07/30 09:19:25;;;;;;;1.60;1.03;;;;;;;23.70;100.00;96127.22;4978093;28;101890;-66
2023/07/30 09:21:54;;;;;;;1.50;1.40;;;;;;;23.49;100.00;96123.81;4973746;28;105678;-66
2023/07/30 09:24:23;;;;;;;1.57;1.20;;;;;;;23.20;100.00;96131.34;4974788;28;101941;-66
2023/07/30 09:26:50;;;;;;;1.43;1.23;;;;;;;23.03;100.00;96145.06;4974333;28;105602;-66
2023/07/30 09:29:17;;;;;;;1.00;1.00;;;;;;;22.87;100.00;96144.09;4973836;28;105822;-66
2023/07/30 09:31:48;;;;;;;1.67;1.10;;;;;;;23.11;100.00;96138.78;4988159;28;101856;-66
2023/07/30 09:34:20;;;;;;;1.27;1.27;;;;;;;23.27;100.00;96131.59;4955006;28;105470;-66
2023/07/30 09:36:47;;;;;;;1.17;1.17;;;;;;;23.97;100.00;96128.50;4954129;28;105785;-66
2023/07/30 09:39:21;;;;;;;1.10;1.10;;;;;;;24.25;100.00;96121.97;4939985;28;102254;-66
2023/07/30 09:41:49;;;;;;;1.20;1.10;;;;;;;24.42;100.00;96129.84;4963249;28;105434;-66
2023/07/30 09:44:18;;;;;;;1.20;1.20;;;;;;;24.64;100.00;96131.31;4992227;28;102084;-66
2023/07/30 09:46:47;;;;;;;1.40;1.30;;;;;;;24.25;100.00;96132.84;4990315;28;102661;-66
2023/07/30 09:49:14;;;;;;;1.10;1.10;;;;;;;24.00;100.00;96122.38;4991273;28;102839;-66
2023/07/30 09:51:42;;;;;;;1.30;1.20;;;;;;;23.95;100.00;96134.25;4973090;28;103398;-66
2023/07/30 09:54:11;;;;;;;1.33;1.27;;;;;;;23.72;100.00;96135.03;4984340;28;102788;-66
2023/07/30 09:56:41;;;;;;;1.23;1.20;;;;;;;23.50;100.00;96138.19;4953953;28;105531;-66
2023/07/30 09:59:10;;;;;;;1.27;1.10;;;;;;;23.69;100.00;96141.13;4954530;28;101922;-66
2023/07/30 10:01:41;;;;;;;1.40;1.30;;;;;;;23.45;100.00;96138.41;4960928;28;105343;-66
2023/07/30 10:04:09;;;;;;;1.17;1.17;;;;;;;23.02;100.00;96146.19;4963873;28;101889;-66
2023/07/30 10:06:41;;;;;;;1.93;1.37;;;;;;;23.41;100.00;96137.50;4954269;28;105728;-66
2023/07/30 10:09:11;;;;;;;1.50;1.30;;;;;;;23.31;100.00;96135.22;4970564;28;106104;-66
2023/07/30 10:11:42;;;;;;;2.23;2.07;;;;;;;23.63;100.00;96134.34;4973068;28;101912;-66
2023/07/30 10:14:09;;;;;;;1.53;1.43;;;;;;;23.84;100.00;96124.97;4971862;28;105181;-66
2023/07/30 10:16:37;;;;;;;3.00;2.80;;;;;;;24.31;100.00;96126.03;4973270;28;105401;-66
2023/07/30 10:19:04;;;;;;;4.67;4.27;;;;;;;24.03;100.00;96127.91;4991665;28;101864;-66
2023/07/30 10:21:33;;;;;;;2.57;2.37;;;;;;;24.35;100.00;96123.44;4971285;28;105412;-66
2023/07/30 10:24:02;;;;;;;28.67;26.03;;;;;;;24.55;100.00;96123.25;4956874;28;105728;-66
2023/07/30 10:26:31;;;;;;;1.43;1.33;;;;;;;24.42;100.00;96116.25;4953086;28;105305;-66
2023/07/30 10:29:23;;;;;;;1.33;1.30;;;;;;;24.42;100.00;96120.94;4953297;28;106157;-66
2023/07/30 10:31:54;;;;;;;1.80;1.20;;;;;;;24.45;100.00;96117.50;4951991;28;102519;-66
2023/07/30 10:34:21;;;;;;;1.73;1.10;;;;;;;24.52;100.00;96125.88;4962903;28;105237;-66
2023/07/30 10:36:50;;;;;;;1.10;1.10;;;;;;;24.67;100.00;96119.72;4990610;28;102191;-66
2023/07/30 10:39:19;;;;;;;1.07;0.97;;;;;;;24.70;100.00;96125.28;4971665;28;101941;-66
2023/07/30 10:41:47;;;;;;;1.00;1.00;;;;;;;24.60;100.00;96127.69;4973098;28;105321;-65
2023/07/30 10:44:37;;;;;;;1.00;0.90;;;;;;;24.86;100.00;96128.03;4958283;28;105660;-66
2023/07/30 10:47:04;;;;;;;1.10;1.00;;;;;;;24.79;100.00;96134.06;4970779;28;103107;-66
2023/07/30 10:49:38;;;;;;;0.93;0.93;;;;;;;25.18;100.00;96129.69;4953085;28;105766;-66
2023/07/30 10:52:06;;;;;;;1.03;0.97;;;;;;;25.08;100.00;96128.28;4954499;28;102123;-66
2023/07/30 10:54:35;;;;;;;0.87;0.87;;;;;;;25.00;100.00;96129.22;4953517;28;105816;-66
2023/07/30 10:57:03;;;;;;;1.07;0.90;;;;;;;25.29;100.00;96122.63;4952964;28;104587;-66
2023/07/30 10:59:36;;;;;;;0.90;0.90;;;;;;;25.38;100.00;96117.78;4971271;28;101991;-66
2023/07/30 11:02:08;;;;;;;0.90;0.90;;;;;;;25.10;100.00;96127.91;4958929;28;105054;-66
2023/07/30 11:04:36;;;;;;;0.93;0.93;;;;;;;25.64;100.00;96121.59;4979190;28;103182;-66
2023/07/30 11:07:03;;;;;;;0.80;0.80;;;;;;;26.01;100.00;96112.00;4971052;28;101875;-66
2023/07/30 11:09:30;;;;;;;0.93;0.93;;;;;;;25.50;100.00;96113.06;4956291;28;105377;-66
2023/07/30 11:11:57;;;;;;;1.30;1.10;;;;;;;25.35;100.00;96110.34;4954464;28;101879;-66
2023/07/30 11:14:27;;;;;;;1.87;1.20;;;;;;;25.24;100.00;96118.19;4962180;28;105348;-66
2023/07/30 11:16:58;;;;;;;1.13;1.00;;;;;;;25.48;100.00;96118.06;4972158;28;105406;-66
2023/07/30 11:19:27;;;;;;;1.23;1.13;;;;;;;25.74;100.00;96118.31;4972695;28;102346;-66
2023/07/30 11:21:56;;;;;;;1.10;1.10;;;;;;;25.37;100.00;96117.00;4972964;28;105317;-66